createdAt,value
2022-10-18T00:03:50.437Z,13.44
2022-10-18T00:08:54.038Z,13.41
2022-10-18T00:13:57.470Z,13.51
2022-10-18T00:19:02.287Z,13.50
2022-10-18T00:24:06.222Z,13.44
2022-10-18T00:29:14.818Z,13.21
2022-10-18T00:34:19.461Z,13.43
2022-10-18T00:39:23.772Z,13.58
2022-10-18T00:45:03.104Z,13.67
2022-10-18T00:50:10.223Z,13.68
2022-10-18T00:55:14.245Z,13.76
2022-10-18T01:00:18.215Z,13.81
2022-10-18T01:05:24.070Z,13.76
2022-10-18T01:10:35.918Z,13.74
2022-10-18T01:15:48.299Z,13.68
2022-10-18T01:21:15.046Z,13.65
2022-10-18T01:26:33.608Z,13.77
2022-10-18T01:31:44.699Z,13.85
2022-10-18T01:36:52.269Z,13.94
2022-10-18T01:42:01.270Z,14.05
2022-10-18T01:47:10.007Z,14.11
2022-10-18T01:52:14.252Z,14.21
2022-10-18T01:57:25.899Z,13.95
2022-10-18T02:02:47.925Z,14.25
2022-10-18T02:08:12.512Z,14.24
2022-10-18T02:13:25.199Z,14.40
2022-10-18T02:18:36.984Z,14.31
2022-10-18T02:23:40.798Z,14.42
2022-10-18T02:28:44.840Z,14.42
2022-10-18T02:33:54.502Z,14.41
2022-10-18T02:39:05.176Z,14.24
2022-10-18T02:44:08.580Z,14.31
2022-10-18T02:49:13.426Z,14.43
2022-10-18T02:54:16.920Z,14.36
2022-10-18T02:59:20.313Z,14.46
2022-10-18T03:04:25.155Z,14.53
2022-10-18T03:09:28.545Z,14.51
2022-10-18T03:14:31.957Z,14.62
2022-10-18T03:19:38.604Z,14.69
2022-10-18T03:24:42.433Z,14.65
2022-10-18T03:29:46.228Z,14.81
2022-10-18T03:34:51.148Z,14.80
2022-10-18T03:39:55.208Z,14.79
2022-10-18T03:44:58.668Z,14.65
2022-10-18T03:50:04.113Z,14.91
2022-10-18T03:55:08.670Z,14.92
2022-10-18T04:00:13.160Z,14.76
2022-10-18T04:05:18.955Z,14.90
2022-10-18T04:10:22.513Z,14.80
2022-10-18T04:15:25.864Z,14.70
2022-10-18T04:20:30.743Z,14.91
2022-10-18T04:25:34.607Z,15.06
2022-10-18T04:30:38.523Z,15.00
2022-10-18T04:35:43.328Z,15.07
2022-10-18T04:40:46.826Z,15.04
2022-10-18T04:45:51.292Z,15.13
2022-10-18T04:50:56.203Z,15.09
2022-10-18T04:55:59.986Z,14.98
2022-10-18T05:01:06.204Z,15.14
2022-10-18T05:06:11.155Z,15.12
2022-10-18T05:11:14.595Z,15.19
2022-10-18T05:16:18.070Z,15.20
2022-10-18T05:21:22.959Z,15.10
2022-10-18T05:26:26.563Z,14.99
2022-10-18T05:31:30.928Z,15.14
2022-10-18T05:36:36.090Z,15.14
2022-10-18T05:41:39.959Z,15.13
2022-10-18T05:46:43.524Z,15.24
2022-10-18T05:51:48.743Z,15.04
2022-10-18T05:56:52.804Z,15.08
2022-10-18T06:01:56.374Z,15.13
2022-10-18T06:07:01.272Z,15.23
2022-10-18T06:12:09.306Z,15.03
2022-10-18T06:17:13.389Z,15.12
2022-10-18T06:22:27.384Z,15.37
2022-10-18T06:27:33.118Z,15.22
2022-10-18T06:32:37.361Z,15.36
2022-10-18T06:42:55.274Z,15.27
2022-10-18T06:48:09.490Z,15.51
2022-10-18T06:53:14.529Z,15.62
2022-10-18T06:58:18.600Z,15.75
2022-10-18T07:03:23.354Z,15.88
2022-10-18T07:08:29.610Z,15.66
2022-10-18T07:13:34.313Z,15.89
2022-10-18T07:18:39.213Z,15.73
2022-10-18T07:23:46.376Z,15.91
2022-10-18T07:28:54.933Z,15.95
2022-10-18T07:33:59.333Z,15.97
2022-10-18T07:39:06.648Z,16.09
2022-10-18T07:44:11.470Z,15.95
2022-10-18T07:49:16.443Z,16.15
2022-10-18T07:54:22.882Z,16.06
2022-10-18T07:59:27.623Z,16.07
2022-10-18T08:04:31.078Z,16.20
2022-10-18T08:09:36.080Z,16.24
2022-10-18T08:14:40.158Z,16.23
2022-10-18T08:19:52.892Z,16.39
2022-10-18T08:25:09.711Z,16.58
2022-10-18T08:30:13.273Z,16.18
2022-10-18T08:35:16.954Z,16.43
2022-10-18T08:40:21.867Z,16.53
2022-10-18T08:45:42.009Z,16.84
2022-10-18T08:50:48.480Z,16.80
2022-10-18T08:55:59.385Z,16.43
2022-10-18T09:01:15.700Z,16.54
2022-10-18T09:06:28.862Z,16.45
2022-10-18T09:11:49.557Z,16.74
2022-10-18T09:17:02.794Z,16.79
2022-10-18T09:22:14.092Z,16.94
2022-10-18T09:27:21.412Z,16.67
2022-10-18T09:32:34.419Z,16.65
2022-10-18T09:37:38.671Z,16.67
2022-10-18T09:42:52.272Z,16.73
2022-10-18T09:48:05.230Z,16.84
2022-10-18T09:53:16.920Z,16.92
2022-10-18T09:58:25.239Z,16.95
2022-10-18T10:03:28.901Z,16.89
2022-10-18T10:08:35.975Z,17.31
2022-10-18T10:13:41.036Z,17.12
2022-10-18T10:18:44.983Z,16.91
2022-10-18T10:23:54.239Z,17.58
2022-10-18T10:28:59.197Z,17.78
2022-10-18T10:34:04.550Z,17.81
2022-10-18T10:39:12.191Z,18.00
2022-10-18T10:44:18.617Z,17.93
2022-10-18T10:49:41.179Z,17.77
2022-10-18T10:54:52.223Z,17.46
2022-10-18T10:59:59.847Z,17.63
2022-10-18T11:05:22.868Z,18.03
2022-10-18T11:10:30.193Z,17.59
2022-10-18T11:15:41.595Z,18.05
2022-10-18T11:20:50.503Z,17.44
2022-10-18T11:26:06.402Z,17.36
2022-10-18T11:31:19.073Z,17.39
2022-10-18T11:36:36.578Z,17.19
2022-10-18T11:41:48.082Z,17.23
2022-10-18T11:47:02.200Z,17.50
2022-10-18T11:52:13.844Z,17.89
2022-10-18T11:57:33.829Z,18.12
2022-10-18T12:02:57.519Z,17.73
2022-10-18T12:08:06.889Z,17.19
2022-10-18T12:13:18.742Z,17.26
2022-10-18T12:18:27.197Z,17.31
2022-10-18T12:23:40.176Z,17.18
2022-10-18T12:28:57.071Z,17.36
2022-10-18T12:34:06.472Z,17.21
2022-10-18T12:39:33.440Z,17.45
2022-10-18T12:44:49.331Z,16.98
2022-10-18T12:50:03.068Z,17.08
2022-10-18T12:55:29.589Z,17.07
2022-10-18T13:00:56.273Z,16.88
2022-10-18T13:06:06.473Z,17.03
2022-10-18T13:11:36.849Z,16.87
2022-10-18T13:17:30.798Z,17.17
2022-10-18T13:22:54.544Z,16.91
2022-10-18T13:28:04.214Z,16.72
2022-10-18T13:33:34.611Z,16.85
2022-10-18T13:38:59.609Z,17.01
2022-10-18T13:44:26.363Z,17.15
2022-10-18T13:49:41.262Z,17.27
2022-10-18T13:55:01.616Z,17.50
2022-10-18T14:00:22.341Z,17.17
2022-10-18T14:05:43.144Z,16.88
2022-10-18T14:11:02.251Z,16.53
2022-10-18T14:16:12.752Z,16.60
2022-10-18T14:21:32.224Z,16.61
2022-10-18T14:26:37.241Z,16.59
2022-10-18T14:31:42.006Z,16.71
2022-10-18T14:36:49.885Z,16.60
2022-10-18T14:41:57.084Z,16.73
2022-10-18T14:47:02.642Z,16.78
2022-10-18T14:52:09.544Z,16.87
2022-10-18T14:57:20.585Z,17.00
2022-10-18T15:02:26.731Z,17.10
2022-10-18T15:07:30.852Z,17.19
2022-10-18T15:13:04.417Z,16.72
2022-10-18T15:18:06.622Z,16.47
2022-10-18T15:23:26.940Z,16.75
2022-10-18T15:28:35.977Z,16.74
2022-10-18T15:33:40.016Z,16.50
2022-10-18T15:38:47.550Z,16.53
2022-10-18T15:44:13.141Z,16.72
2022-10-18T15:50:08.262Z,16.58
2022-10-18T15:55:56.870Z,16.56
2022-10-18T16:01:04.550Z,16.51
2022-10-18T16:06:13.449Z,16.41
2022-10-18T16:11:23.981Z,16.31
2022-10-18T16:16:31.732Z,16.34
2022-10-18T16:21:38.041Z,16.15
2022-10-18T16:26:42.346Z,16.22
2022-10-18T16:31:48.004Z,16.10
2022-10-18T16:36:51.871Z,15.82
2022-10-18T16:41:56.828Z,15.58
2022-10-18T16:47:03.472Z,15.34
2022-10-18T16:52:08.666Z,15.21
2022-10-18T16:57:14.054Z,15.20
2022-10-18T17:02:19.054Z,15.11
2022-10-18T17:07:25.651Z,15.23
2022-10-18T17:12:30.035Z,15.25
2022-10-18T17:17:36.247Z,15.13
2022-10-18T17:22:41.970Z,14.77
2022-10-18T17:27:47.738Z,14.86
2022-10-18T17:32:55.386Z,14.94
2022-10-18T17:37:59.764Z,14.70
2022-10-18T17:43:04.340Z,14.25
2022-10-18T17:48:10.173Z,14.65
2022-10-18T17:53:20.431Z,14.47
2022-10-18T17:58:26.039Z,14.45
2022-10-18T18:03:32.538Z,14.11
2022-10-18T18:08:39.409Z,14.17
2022-10-18T18:13:43.590Z,13.59
2022-10-18T18:18:51.305Z,13.67
2022-10-18T18:23:55.712Z,13.76
2022-10-18T18:28:59.490Z,13.54
2022-10-18T18:34:07.103Z,13.45
2022-10-18T18:39:20.558Z,13.16
2022-10-18T18:44:26.615Z,13.17
2022-10-18T18:49:36.874Z,13.10
2022-10-18T18:54:42.926Z,13.00
2022-10-18T18:59:46.959Z,12.87
2022-10-18T19:04:52.432Z,12.92
2022-10-18T19:09:56.241Z,12.58
2022-10-18T19:14:59.983Z,12.90
2022-10-18T19:20:13.313Z,12.64
2022-10-18T19:25:17.705Z,12.68
2022-10-18T19:30:32.506Z,12.82
2022-10-18T19:35:38.248Z,12.77
2022-10-18T19:40:41.741Z,12.46
2022-10-18T19:45:45.261Z,12.12
2022-10-18T19:50:51.193Z,12.28
2022-10-18T19:56:02.573Z,12.20
2022-10-18T20:01:06.854Z,12.17
2022-10-18T20:06:13.391Z,12.22
2022-10-18T20:11:19.147Z,12.11
2022-10-18T20:16:28.196Z,12.21
2022-10-18T20:21:39.734Z,11.87
2022-10-18T20:26:48.692Z,11.87
2022-10-18T20:31:56.494Z,12.22
2022-10-18T20:37:01.995Z,11.97
2022-10-18T20:42:05.803Z,12.01
2022-10-18T20:47:09.975Z,11.96
2022-10-18T20:52:16.301Z,12.37
2022-10-18T20:57:20.208Z,12.26
2022-10-18T21:02:23.917Z,11.68
2022-10-18T21:07:30.638Z,11.87
2022-10-18T21:12:35.159Z,12.01
2022-10-18T21:17:38.847Z,12.01
2022-10-18T21:22:43.677Z,12.14
2022-10-18T21:27:47.284Z,12.19
2022-10-18T21:32:52.622Z,12.25
2022-10-18T21:37:57.389Z,12.41
2022-10-18T21:43:01.359Z,12.33
2022-10-18T21:48:05.580Z,12.38
2022-10-18T21:53:12.060Z,12.24
2022-10-18T21:58:16.049Z,12.38
2022-10-18T22:03:19.479Z,12.03
2022-10-18T22:08:24.689Z,12.36
2022-10-18T22:13:28.684Z,12.52
2022-10-18T22:18:33.731Z,12.41
2022-10-18T22:23:41.214Z,12.16
2022-10-18T22:28:46.117Z,12.17
2022-10-18T22:33:54.273Z,12.05
2022-10-18T22:38:59.599Z,12.08
2022-10-18T22:44:03.827Z,11.90
2022-10-18T22:49:08.108Z,11.99
2022-10-18T22:54:13.034Z,11.65
2022-10-18T22:59:16.805Z,11.67
2022-10-18T23:04:20.722Z,11.60
2022-10-18T23:09:27.136Z,11.35
2022-10-18T23:14:30.913Z,11.29
2022-10-18T23:19:34.430Z,11.29
2022-10-18T23:24:39.319Z,11.16
2022-10-18T23:29:42.901Z,11.28
2022-10-18T23:34:46.311Z,11.34
2022-10-18T23:39:51.211Z,11.32
2022-10-18T23:44:55.124Z,11.18
2022-10-18T23:49:59.000Z,11.32
2022-10-18T23:55:03.904Z,11.29
